createdAt,value
2018-09-15T00:00:15.816Z,25.28
2018-09-15T00:02:44.882Z,25.36
2018-09-15T00:05:13.687Z,25.22
2018-09-15T00:07:42.496Z,24.87
2018-09-15T00:10:11.580Z,25.17
2018-09-15T00:12:40.340Z,24.53
2018-09-15T00:15:09.452Z,24.43
2018-09-15T00:17:39.821Z,24.50
2018-09-15T00:20:09.028Z,24.75
2018-09-15T00:22:37.894Z,24.75
2018-09-15T00:25:07.221Z,24.73
2018-09-15T00:27:36.206Z,24.61
2018-09-15T00:30:05.152Z,24.95
2018-09-15T00:32:34.221Z,24.92
2018-09-15T00:35:03.685Z,24.81
2018-09-15T00:37:33.234Z,24.28
2018-09-15T00:40:02.147Z,23.60
2018-09-15T00:42:31.359Z,22.96
2018-09-15T00:45:00.958Z,23.06
2018-09-15T00:47:29.861Z,22.60
2018-09-15T00:49:58.690Z,23.25
2018-09-15T00:52:27.506Z,23.11
2018-09-15T00:54:56.348Z,22.72
2018-09-15T00:57:25.254Z,23.10
2018-09-15T00:59:54.191Z,22.35
2018-09-15T01:02:23.318Z,22.76
2018-09-15T01:04:52.450Z,22.54
2018-09-15T01:07:21.432Z,22.52
2018-09-15T01:12:40.979Z,22.73
2018-09-15T01:15:10.049Z,22.36
2018-09-15T01:17:39.115Z,22.58
2018-09-15T01:20:08.340Z,22.51
2018-09-15T01:22:37.066Z,22.63
2018-09-15T01:25:06.176Z,22.63
2018-09-15T01:27:34.969Z,22.41
2018-09-15T01:30:04.584Z,22.66
2018-09-15T01:32:33.404Z,22.72
2018-09-15T01:35:02.311Z,22.82
2018-09-15T01:37:31.183Z,22.99
2018-09-15T01:39:59.879Z,22.58
2018-09-15T01:42:28.725Z,22.53
2018-09-15T01:47:25.296Z,22.21
2018-09-15T01:49:54.147Z,22.46
2018-09-15T01:52:23.435Z,22.18
2018-09-15T01:54:52.700Z,22.23
2018-09-15T01:57:21.644Z,22.31
2018-09-15T01:59:50.790Z,22.27
2018-09-15T02:02:19.840Z,22.23
2018-09-15T02:04:49.276Z,22.08
2018-09-15T02:07:18.486Z,22.45
2018-09-15T02:09:47.368Z,21.94
2018-09-15T02:12:16.242Z,22.47
2018-09-15T02:14:45.160Z,22.09
2018-09-15T02:17:14.117Z,22.72
2018-09-15T02:19:42.943Z,22.32
2018-09-15T02:22:12.068Z,22.36
2018-09-15T02:24:40.828Z,21.99
2018-09-15T02:27:09.701Z,22.00
2018-09-15T02:29:38.754Z,22.64
2018-09-15T02:32:07.693Z,22.56
2018-09-15T02:34:36.978Z,22.61
2018-09-15T02:37:05.919Z,22.92
2018-09-15T02:39:34.736Z,22.85
2018-09-15T02:42:03.695Z,22.76
2018-09-15T02:44:32.782Z,22.29
2018-09-15T02:47:01.788Z,22.27
2018-09-15T02:49:30.675Z,21.98
2018-09-15T02:51:59.738Z,22.33
2018-09-15T02:54:28.733Z,22.32
2018-09-15T02:56:57.668Z,22.05
2018-09-15T02:59:26.657Z,22.32
2018-09-15T03:01:55.466Z,21.85
2018-09-15T03:04:24.402Z,22.45
2018-09-15T03:06:53.498Z,22.02
2018-09-15T03:09:22.419Z,22.52
2018-09-15T03:11:51.392Z,22.26
2018-09-15T03:14:20.789Z,22.18
2018-09-15T03:16:49.750Z,22.08
2018-09-15T03:19:19.060Z,22.16
2018-09-15T03:21:47.868Z,22.31
2018-09-15T03:24:16.976Z,21.06
2018-09-15T03:26:45.904Z,22.20
2018-09-15T03:29:14.843Z,22.54
2018-09-15T03:31:43.653Z,22.30
2018-09-15T03:34:12.503Z,22.45
2018-09-15T03:36:41.964Z,22.66
2018-09-15T03:39:12.193Z,22.71
2018-09-15T03:41:41.715Z,22.80
2018-09-15T03:44:10.548Z,22.68
2018-09-15T03:46:39.760Z,22.33
2018-09-15T03:49:08.708Z,22.30
2018-09-15T03:51:37.745Z,22.57
2018-09-15T03:54:07.382Z,22.64
2018-09-15T03:56:36.350Z,22.33
2018-09-15T03:59:05.431Z,21.96
2018-09-15T04:01:34.609Z,22.04
2018-09-15T04:04:03.666Z,21.76
2018-09-15T04:06:32.730Z,22.38
2018-09-15T04:09:01.580Z,22.06
2018-09-15T04:11:30.631Z,21.36
2018-09-15T04:13:59.561Z,21.19
2018-09-15T04:16:28.316Z,21.32
2018-09-15T04:18:57.320Z,21.24
2018-09-15T04:21:26.079Z,21.01
2018-09-15T04:23:55.073Z,21.29
2018-09-15T04:26:24.502Z,21.37
2018-09-15T04:28:53.543Z,20.82
2018-09-15T04:31:22.511Z,21.33
2018-09-15T04:33:51.608Z,21.42
2018-09-15T04:36:20.742Z,21.32
2018-09-15T04:38:49.628Z,21.38
2018-09-15T04:41:18.436Z,21.56
2018-09-15T04:43:47.459Z,21.57
2018-09-15T04:46:16.368Z,21.79
2018-09-15T04:48:45.867Z,21.55
2018-09-15T04:51:15.258Z,21.26
2018-09-15T04:53:44.797Z,21.84
2018-09-15T04:56:13.650Z,22.14
2018-09-15T04:58:43.048Z,21.70
2018-09-15T05:01:12.523Z,20.95
2018-09-15T05:03:41.637Z,20.57
2018-09-15T05:06:10.592Z,21.14
2018-09-15T05:08:39.603Z,21.30
2018-09-15T05:11:08.808Z,21.53
2018-09-15T05:13:37.888Z,21.47
2018-09-15T05:16:06.760Z,21.54
2018-09-15T05:18:35.735Z,21.90
2018-09-15T05:21:04.655Z,21.57
2018-09-15T05:23:33.568Z,21.77
2018-09-15T05:26:02.403Z,21.44
2018-09-15T05:28:31.279Z,20.72
2018-09-15T05:31:00.441Z,21.58
2018-09-15T05:33:29.533Z,21.72
2018-09-15T05:35:58.563Z,21.43
2018-09-15T05:38:27.457Z,21.82
2018-09-15T05:40:56.263Z,21.84
2018-09-15T05:43:25.276Z,21.51
2018-09-15T05:45:54.066Z,21.35
2018-09-15T05:48:23.013Z,21.74
2018-09-15T05:50:52.051Z,21.41
2018-09-15T05:53:21.418Z,21.89
2018-09-15T05:55:50.284Z,21.99
2018-09-15T05:58:19.204Z,22.00
2018-09-15T06:00:48.019Z,21.72
2018-09-15T06:03:17.240Z,21.87
2018-09-15T06:05:46.062Z,22.19
2018-09-15T06:08:14.845Z,22.07
2018-09-15T06:10:43.700Z,22.05
2018-09-15T06:13:12.753Z,21.92
2018-09-15T06:15:41.572Z,21.53
2018-09-15T06:18:10.474Z,21.21
2018-09-15T06:20:39.570Z,21.04
2018-09-15T06:23:08.478Z,21.22
2018-09-15T06:25:37.485Z,21.29
2018-09-15T06:28:06.471Z,21.24
2018-09-15T06:30:35.250Z,22.19
2018-09-15T06:33:04.102Z,22.53
2018-09-15T06:35:32.839Z,23.28
2018-09-15T06:38:01.736Z,23.69
2018-09-15T06:40:31.004Z,23.93
2018-09-15T06:43:00.730Z,24.93
2018-09-15T06:45:29.573Z,24.85
2018-09-15T06:47:58.399Z,24.83
2018-09-15T06:50:27.396Z,24.80
2018-09-15T06:52:56.238Z,25.19
2018-09-15T06:55:25.030Z,25.18
2018-09-15T06:57:54.551Z,24.71
2018-09-15T07:00:24.003Z,24.83
2018-09-15T07:02:53.069Z,24.72
2018-09-15T07:05:22.124Z,24.66
2018-09-15T07:07:51.057Z,24.34
2018-09-15T07:10:20.634Z,24.04
2018-09-15T07:12:50.556Z,23.99
2018-09-15T07:15:19.905Z,24.35
2018-09-15T07:17:49.550Z,24.35
2018-09-15T07:20:18.741Z,24.35
2018-09-15T07:22:47.543Z,24.76
2018-09-15T07:25:16.377Z,24.69
2018-09-15T07:27:45.527Z,24.41
2018-09-15T07:30:14.371Z,24.41
2018-09-15T07:32:43.479Z,24.33
2018-09-15T07:35:12.397Z,24.63
2018-09-15T07:37:41.501Z,24.29
2018-09-15T07:40:10.545Z,24.69
2018-09-15T07:42:39.961Z,24.58
2018-09-15T07:45:09.162Z,24.43
2018-09-15T07:47:38.157Z,24.43
2018-09-15T07:50:07.044Z,24.44
2018-09-15T07:52:35.920Z,24.61
2018-09-15T07:55:04.932Z,24.81
2018-09-15T07:57:34.049Z,24.45
2018-09-15T08:00:03.397Z,24.64
2018-09-15T08:02:32.437Z,24.78
2018-09-15T08:05:01.571Z,24.95
2018-09-15T08:07:30.440Z,24.84
2018-09-15T08:09:59.493Z,24.80
2018-09-15T08:12:28.300Z,25.03
2018-09-15T08:14:57.156Z,24.78
2018-09-15T08:17:26.060Z,24.64
2018-09-15T08:19:54.889Z,25.09
2018-09-15T08:22:23.909Z,25.18
2018-09-15T08:24:53.769Z,25.22
2018-09-15T08:27:22.719Z,24.86
2018-09-15T08:29:51.562Z,24.98
2018-09-15T08:32:20.816Z,25.16
2018-09-15T08:34:49.783Z,25.56
2018-09-15T08:37:18.814Z,25.24
2018-09-15T08:39:47.601Z,25.49
2018-09-15T08:42:16.621Z,25.66
2018-09-15T08:44:46.037Z,25.78
2018-09-15T08:47:15.092Z,25.69
2018-09-15T08:49:43.873Z,25.92
2018-09-15T08:52:12.832Z,25.69
2018-09-15T08:54:42.036Z,25.85
2018-09-15T08:57:11.084Z,25.89
2018-09-15T08:59:39.851Z,26.15
2018-09-15T09:02:12.921Z,26.22
2018-09-15T09:04:43.831Z,26.52
2018-09-15T09:07:12.523Z,26.61
2018-09-15T09:09:41.333Z,26.21
2018-09-15T09:12:10.293Z,25.95
2018-09-15T09:14:39.421Z,26.56
2018-09-15T09:17:09.366Z,26.33
2018-09-15T09:19:38.646Z,26.46
2018-09-15T09:22:07.555Z,26.86
2018-09-15T09:24:36.670Z,27.25
2018-09-15T09:27:05.367Z,27.29
2018-09-15T09:29:34.825Z,27.87
2018-09-15T09:32:03.601Z,28.08
2018-09-15T09:34:34.195Z,27.96
2018-09-15T09:37:03.532Z,28.40
2018-09-15T09:39:32.293Z,27.64
2018-09-15T09:42:01.486Z,27.90
2018-09-15T09:44:30.609Z,27.53
2018-09-15T09:46:59.641Z,27.28
2018-09-15T09:49:28.430Z,27.23
2018-09-15T09:51:57.459Z,27.15
2018-09-15T09:54:26.211Z,26.39
2018-09-15T09:56:54.993Z,27.29
2018-09-15T09:59:24.480Z,27.55
2018-09-15T10:01:58.476Z,25.95
2018-09-15T10:04:28.674Z,27.12
2018-09-15T10:06:58.106Z,26.18
2018-09-15T10:09:27.014Z,27.22
2018-09-15T10:11:55.896Z,28.00
2018-09-15T10:14:24.887Z,28.88
2018-09-15T10:16:53.840Z,29.23
2018-09-15T10:19:22.784Z,27.92
2018-09-15T10:21:51.636Z,28.28
2018-09-15T10:24:20.777Z,28.05
2018-09-15T10:26:49.708Z,28.16
2018-09-15T10:29:18.873Z,27.74
2018-09-15T10:31:54.018Z,27.79
2018-09-15T10:34:22.899Z,27.88
2018-09-15T10:36:52.094Z,26.87
2018-09-15T10:39:21.518Z,26.77
2018-09-15T10:41:51.569Z,27.24
2018-09-15T10:44:21.079Z,28.12
2018-09-15T10:46:50.871Z,28.49
2018-09-15T10:49:20.562Z,28.80
2018-09-15T10:51:49.539Z,28.38
2018-09-15T10:54:18.495Z,27.85
2018-09-15T10:56:47.900Z,28.68
2018-09-15T10:59:16.809Z,29.26
2018-09-15T11:01:45.829Z,29.25
2018-09-15T11:04:14.710Z,29.35
2018-09-15T11:06:44.538Z,28.78
2018-09-15T11:09:13.847Z,27.94
2018-09-15T11:11:45.767Z,28.11
2018-09-15T11:14:14.972Z,26.96
2018-09-15T11:16:44.087Z,28.04
2018-09-15T11:19:13.162Z,27.94
2018-09-15T11:21:44.166Z,29.47
2018-09-15T11:24:15.247Z,29.81
2018-09-15T11:26:47.531Z,28.14
2018-09-15T11:29:16.879Z,27.84
2018-09-15T11:31:48.485Z,27.96
2018-09-15T11:34:22.948Z,27.86
2018-09-15T11:36:52.673Z,28.58
2018-09-15T11:39:21.819Z,27.97
2018-09-15T11:41:50.898Z,28.71
2018-09-15T11:44:20.064Z,29.43
2018-09-15T11:46:49.278Z,30.33
2018-09-15T11:49:18.198Z,30.62
2018-09-15T11:51:47.722Z,31.22
2018-09-15T11:54:18.382Z,31.50
2018-09-15T11:56:47.329Z,31.46
2018-09-15T11:59:16.167Z,31.02
2018-09-15T12:01:45.321Z,30.58
2018-09-15T12:04:14.318Z,31.41
2018-09-15T12:06:43.493Z,31.50
2018-09-15T12:09:12.545Z,31.15
2018-09-15T12:11:43.831Z,31.32
2018-09-15T12:14:13.939Z,32.75
2018-09-15T12:16:44.834Z,33.72
2018-09-15T12:19:16.232Z,34.74
2018-09-15T12:21:46.282Z,37.58
2018-09-15T12:24:16.358Z,39.31
2018-09-15T12:26:47.601Z,41.24
2018-09-15T12:29:17.624Z,39.46
2018-09-15T12:31:48.379Z,37.75
2018-09-15T12:34:19.528Z,38.81
2018-09-15T12:36:50.190Z,40.13
2018-09-15T12:39:20.303Z,40.42
2018-09-15T12:41:50.961Z,39.28
2018-09-15T12:44:21.825Z,39.46
2018-09-15T12:46:52.804Z,39.86
2018-09-15T12:49:23.431Z,36.80
2018-09-15T12:51:53.746Z,34.19
2018-09-15T12:54:24.566Z,33.27
2018-09-15T12:56:54.273Z,34.72
2018-09-15T12:59:23.487Z,35.23
2018-09-15T13:01:52.884Z,36.67
2018-09-15T13:04:21.923Z,39.24
2018-09-15T13:06:50.711Z,41.16
2018-09-15T13:09:19.457Z,40.83
2018-09-15T13:11:48.520Z,40.72
2018-09-15T13:14:17.469Z,38.31
2018-09-15T13:16:48.109Z,39.93
2018-09-15T13:19:17.240Z,41.23
2018-09-15T13:21:46.045Z,39.23
2018-09-15T13:24:18.945Z,39.28
2018-09-15T13:27:05.285Z,37.75
2018-09-15T13:29:33.969Z,39.43
2018-09-15T13:32:02.398Z,38.18
2018-09-15T13:34:30.887Z,40.48
2018-09-15T13:36:59.325Z,42.46
2018-09-15T13:39:31.383Z,38.43
2018-09-15T13:41:59.892Z,38.39
2018-09-15T13:44:28.324Z,40.67
2018-09-15T13:46:56.680Z,37.50
2018-09-15T13:49:25.352Z,39.70
2018-09-15T13:51:53.743Z,38.81
2018-09-15T13:54:22.321Z,40.76
2018-09-15T13:56:57.809Z,39.28
2018-09-15T13:59:26.415Z,40.33
2018-09-15T14:01:54.924Z,40.16
2018-09-15T14:04:23.413Z,39.43
2018-09-15T14:06:51.855Z,40.52
2018-09-15T14:09:21.350Z,38.07
2018-09-15T14:14:58.082Z,42.33
2018-09-15T14:17:26.464Z,41.07
2018-09-15T14:19:54.983Z,42.19
2018-09-15T14:22:23.519Z,41.40
2018-09-15T14:24:51.854Z,39.78
2018-09-15T14:27:20.214Z,40.42
2018-09-15T14:29:48.937Z,41.56
2018-09-15T14:32:17.496Z,42.22
2018-09-15T14:34:46.056Z,40.64
2018-09-15T14:37:20.531Z,39.33
2018-09-15T14:39:49.163Z,42.29
2018-09-15T14:42:34.383Z,41.99
2018-09-15T14:45:02.821Z,43.59
2018-09-15T14:47:45.928Z,43.32
2018-09-15T14:50:14.339Z,41.84
2018-09-15T14:52:44.651Z,40.76
2018-09-15T14:55:13.901Z,40.75
2018-09-15T14:57:42.923Z,41.61
2018-09-15T15:00:11.848Z,42.21
2018-09-15T15:02:40.867Z,41.52
2018-09-15T15:05:09.755Z,41.77
2018-09-15T15:07:39.251Z,43.64
2018-09-15T15:10:08.374Z,43.32
2018-09-15T15:12:37.279Z,42.07
2018-09-15T15:15:06.217Z,41.85
2018-09-15T15:17:35.443Z,41.63
2018-09-15T15:20:04.709Z,40.01
2018-09-15T15:22:34.042Z,39.00
2018-09-15T15:25:04.239Z,40.30
2018-09-15T15:27:33.313Z,41.73
2018-09-15T15:30:02.675Z,40.39
2018-09-15T15:32:31.699Z,41.68
2018-09-15T15:35:00.820Z,40.86
2018-09-15T15:37:29.782Z,40.18
2018-09-15T15:39:58.801Z,36.92
2018-09-15T15:42:27.641Z,39.38
2018-09-15T15:44:56.587Z,40.59
2018-09-15T15:47:25.332Z,41.30
2018-09-15T15:49:54.273Z,41.83
2018-09-15T15:52:23.217Z,42.04
2018-09-15T15:54:52.129Z,41.52
2018-09-15T15:57:21.002Z,41.84
2018-09-15T15:59:49.795Z,42.72
2018-09-15T16:02:18.884Z,42.32
2018-09-15T16:04:47.817Z,41.03
2018-09-15T16:07:16.768Z,37.77
2018-09-15T16:09:45.789Z,37.65
2018-09-15T16:12:15.442Z,37.55
2018-09-15T16:14:44.441Z,37.12
2018-09-15T16:17:13.349Z,36.91
2018-09-15T16:19:42.393Z,38.10
2018-09-15T16:22:11.209Z,38.64
2018-09-15T16:24:40.847Z,39.18
2018-09-15T16:27:09.519Z,39.16
2018-09-15T16:29:38.474Z,38.45
2018-09-15T16:32:07.920Z,37.94
2018-09-15T16:34:36.925Z,37.18
2018-09-15T16:37:05.844Z,37.75
2018-09-15T16:39:34.565Z,36.67
2018-09-15T16:42:03.473Z,35.38
2018-09-15T16:44:32.481Z,34.19
2018-09-15T16:47:01.595Z,33.00
2018-09-15T16:49:30.569Z,32.17
2018-09-15T16:51:59.986Z,30.81
2018-09-15T16:54:29.801Z,30.29
2018-09-15T16:56:58.955Z,29.86
2018-09-15T16:59:27.968Z,29.13
2018-09-15T17:01:56.970Z,29.00
2018-09-15T17:04:26.010Z,28.66
2018-09-15T17:06:54.801Z,28.45
2018-09-15T17:09:23.608Z,28.10
2018-09-15T17:11:52.949Z,28.07
2018-09-15T17:14:22.197Z,27.82
2018-09-15T17:16:51.095Z,27.53
2018-09-15T17:19:19.868Z,27.11
2018-09-15T17:21:48.809Z,26.95
2018-09-15T17:24:17.819Z,26.84
2018-09-15T17:26:47.001Z,26.53
2018-09-15T17:29:15.946Z,26.32
2018-09-15T17:31:45.141Z,26.05
2018-09-15T17:34:14.056Z,25.80
2018-09-15T17:36:43.127Z,25.60
2018-09-15T17:39:13.068Z,25.46
2018-09-15T17:41:42.266Z,25.41
2018-09-15T17:44:11.461Z,25.25
2018-09-15T17:46:41.046Z,24.83
2018-09-15T17:49:10.792Z,24.74
2018-09-15T17:51:39.941Z,24.73
2018-09-15T17:54:08.915Z,24.57
2018-09-15T17:56:38.365Z,24.43
2018-09-15T17:59:07.605Z,24.35
2018-09-15T18:01:36.531Z,24.27
2018-09-15T18:04:05.654Z,23.98
2018-09-15T18:06:34.535Z,23.84
2018-09-15T18:09:05.006Z,23.98
2018-09-15T18:11:34.648Z,23.81
2018-09-15T18:14:05.058Z,23.65
2018-09-15T18:16:34.282Z,23.43
2018-09-15T18:19:03.411Z,23.39
2018-09-15T18:21:33.393Z,23.30
2018-09-15T18:24:02.524Z,23.20
2018-09-15T18:26:31.587Z,23.08
2018-09-15T18:29:01.158Z,22.97
2018-09-15T18:31:30.273Z,22.95
2018-09-15T18:33:59.248Z,22.83
2018-09-15T18:36:28.680Z,22.66
2018-09-15T18:38:57.671Z,22.57
2018-09-15T18:41:26.581Z,22.56
2018-09-15T18:43:55.549Z,22.49
2018-09-15T18:46:24.581Z,22.44
2018-09-15T18:48:53.765Z,22.33
2018-09-15T18:51:22.939Z,22.37
2018-09-15T18:53:51.953Z,22.23
2018-09-15T18:56:21.186Z,22.24
2018-09-15T18:58:50.037Z,22.12
2018-09-15T19:01:19.281Z,22.11
2018-09-15T19:03:48.288Z,21.96
2018-09-15T19:06:18.365Z,21.91
2018-09-15T19:08:47.586Z,21.83
2018-09-15T19:11:17.796Z,21.85
2018-09-15T19:13:46.889Z,21.80
2018-09-15T19:16:15.886Z,21.79
2018-09-15T19:18:45.278Z,21.82
2018-09-15T19:21:14.559Z,21.77
2018-09-15T19:23:44.156Z,21.72
2018-09-15T19:26:12.965Z,21.67
2018-09-15T19:28:41.867Z,21.63
2018-09-15T19:31:10.705Z,21.49
2018-09-15T19:33:39.913Z,21.53
2018-09-15T19:36:09.690Z,21.49
2018-09-15T19:38:38.874Z,21.33
2018-09-15T19:41:09.635Z,21.45
2018-09-15T19:43:38.581Z,21.43
2018-09-15T19:46:08.257Z,21.49
2018-09-15T19:48:38.410Z,21.43
2018-09-15T19:51:07.500Z,21.59
2018-09-15T19:53:37.815Z,21.52
2018-09-15T19:56:06.802Z,21.50
2018-09-15T19:58:35.569Z,21.42
2018-09-15T20:01:04.890Z,21.29
2018-09-15T20:03:33.945Z,21.33
2018-09-15T20:06:02.808Z,21.30
2018-09-15T20:08:31.969Z,21.25
2018-09-15T20:11:00.922Z,21.21
2018-09-15T20:13:29.861Z,21.15
2018-09-15T20:15:57.558Z,21.08
2018-09-15T20:18:26.272Z,21.11
2018-09-15T20:20:53.773Z,21.03
2018-09-15T20:23:22.650Z,21.07
2018-09-15T20:25:51.757Z,21.15
2018-09-15T20:28:20.680Z,20.99
2018-09-15T20:30:56.143Z,21.11
2018-09-15T20:33:25.497Z,21.06
2018-09-15T20:35:55.023Z,21.04
2018-09-15T20:38:23.936Z,21.06
2018-09-15T20:40:52.800Z,21.20
2018-09-15T20:43:21.415Z,21.07
2018-09-15T20:45:50.329Z,20.94
2018-09-15T20:48:19.626Z,20.90
2018-09-15T20:50:48.582Z,20.87
2018-09-15T20:53:17.719Z,20.69
2018-09-15T20:55:46.823Z,20.75
2018-09-15T20:58:16.402Z,20.71
2018-09-15T21:00:45.416Z,20.73
2018-09-15T21:03:14.674Z,20.67
2018-09-15T21:05:43.808Z,20.55
2018-09-15T21:08:12.942Z,20.62
2018-09-15T21:10:42.386Z,20.49
2018-09-15T21:13:11.561Z,20.53
2018-09-15T21:15:40.549Z,20.47
2018-09-15T21:18:09.348Z,20.33
2018-09-15T21:20:38.677Z,20.29
2018-09-15T21:23:07.790Z,20.22
2018-09-15T21:25:36.474Z,20.28
2018-09-15T21:28:05.731Z,20.26
2018-09-15T21:30:34.591Z,20.26
2018-09-15T21:33:03.446Z,20.22
2018-09-15T21:35:32.294Z,20.23
2018-09-15T21:38:01.270Z,20.24
2018-09-15T21:40:30.474Z,20.11
2018-09-15T21:42:59.561Z,20.02
2018-09-15T21:45:28.362Z,19.98
2018-09-15T21:47:57.110Z,19.97
2018-09-15T21:50:25.931Z,19.98
2018-09-15T21:52:54.872Z,19.93
2018-09-15T21:55:23.916Z,19.95
2018-09-15T21:57:52.945Z,19.90
2018-09-15T22:00:22.226Z,21.13
2018-09-15T22:02:51.352Z,22.99
2018-09-15T22:05:20.504Z,23.29
2018-09-15T22:07:49.491Z,22.45
2018-09-15T22:10:18.403Z,21.75
2018-09-15T22:12:47.543Z,21.90
2018-09-15T22:15:21.779Z,22.07
2018-09-15T22:17:50.367Z,22.49
2018-09-15T22:20:20.297Z,22.11
2018-09-15T22:22:50.146Z,21.58
2018-09-15T22:25:19.443Z,21.14
2018-09-15T22:27:48.939Z,20.86
2018-09-15T22:30:17.993Z,20.68
2018-09-15T22:32:47.427Z,21.24
2018-09-15T22:35:16.615Z,21.03
2018-09-15T22:37:45.463Z,21.49
2018-09-15T22:40:14.473Z,21.81
2018-09-15T22:42:43.196Z,21.51
2018-09-15T22:45:12.052Z,21.07
2018-09-15T22:47:40.936Z,20.96
2018-09-15T22:50:10.101Z,20.79
2018-09-15T22:52:39.051Z,20.48
2018-09-15T22:55:07.989Z,20.23
2018-09-15T22:57:37.096Z,20.15
2018-09-15T23:00:06.279Z,20.76
2018-09-15T23:02:35.319Z,20.52
2018-09-15T23:05:04.322Z,20.22
2018-09-15T23:07:33.530Z,20.38
2018-09-15T23:10:02.694Z,20.41
2018-09-15T23:12:31.668Z,20.11
2018-09-15T23:15:00.588Z,19.77
2018-09-15T23:17:29.869Z,19.73
2018-09-15T23:20:02.859Z,20.13
2018-09-15T23:22:31.941Z,20.19
2018-09-15T23:25:00.773Z,20.01
2018-09-15T23:27:29.672Z,19.78
2018-09-15T23:29:59.172Z,19.70
2018-09-15T23:32:28.222Z,19.70
2018-09-15T23:34:57.272Z,20.07
2018-09-15T23:37:26.683Z,19.78
2018-09-15T23:39:55.696Z,19.78
2018-09-15T23:42:24.554Z,19.83
2018-09-15T23:44:53.392Z,19.67
2018-09-15T23:47:22.300Z,19.78
2018-09-15T23:49:57.597Z,19.61
2018-09-15T23:52:26.753Z,19.46
2018-09-15T23:54:55.694Z,19.18
2018-09-15T23:57:24.594Z,19.81
2018-09-15T23:59:53.437Z,19.51
